TimeCST,TemperatureF,Dew PointF,Humidity,Sea Level PressureIn,VisibilityMPH,Wind Direction,Wind SpeedMPH,Gust SpeedMPH,PrecipitationIn,Events,Conditions,WindDirDegrees,DateUTC
12:53 AM,19.0,12.9,77,30.22,10.0,WNW,5.8,-,N/A,,Clear,290,2013-02-19 06:53:00
1:53 AM,19.9,12.0,71,30.23,10.0,NNW,8.1,-,N/A,,Clear,340,2013-02-19 07:53:00
2:53 AM,18.0,10.9,74,30.24,10.0,North,8.1,-,N/A,,Clear,350,2013-02-19 08:53:00
3:53 AM,18.0,10.9,74,30.23,10.0,NNW,6.9,-,N/A,,Clear,340,2013-02-19 09:53:00
4:53 AM,18.0,10.0,71,30.25,10.0,NNW,10.4,-,N/A,,Clear,330,2013-02-19 10:53:00
5:53 AM,16.0,9.0,74,30.28,10.0,NW,5.8,-,N/A,,Partly Cloudy,320,2013-02-19 11:53:00
6:06 AM,15.8,8.6,73,30.19,10.0,WNW,4.6,-,N/A,,Mostly Cloudy,300,2013-02-19 12:06:00
6:53 AM,12.0,7.0,80,30.31,10.0,NW,3.5,-,N/A,,Unknown,320,2013-02-19 12:53:00
7:53 AM,12.9,7.0,77,30.33,10.0,Calm,Calm,-,N/A,,Clear,0,2013-02-19 13:53:00
8:53 AM,19.9,10.0,65,30.33,10.0,NNE,5.8,-,N/A,,Clear,30,2013-02-19 14:53:00
9:53 AM,21.9,10.9,63,30.35,10.0,NNE,5.8,-,N/A,,Clear,20,2013-02-19 15:53:00
10:53 AM,26.1,12.0,55,30.35,10.0,Variable,3.5,-,N/A,,Clear,0,2013-02-19 16:53:00
12:53 PM,30.9,14.0,50,30.30,10.0,ESE,4.6,-,N/A,,Clear,120,2013-02-19 18:53:00
1:53 PM,33.1,14.0,46,30.25,10.0,ESE,9.2,-,N/A,,Clear,110,2013-02-19 19:53:00
2:53 PM,36.0,14.0,41,30.22,10.0,East,9.2,-,N/A,,Clear,90,2013-02-19 20:53:00
3:53 PM,36.0,14.0,41,30.20,10.0,East,15.0,-,N/A,,Clear,100,2013-02-19 21:53:00
4:53 PM,36.0,12.9,39,30.19,10.0,ESE,13.8,-,N/A,,Clear,120,2013-02-19 22:53:00
6:53 PM,25.0,10.0,53,30.24,10.0,ESE,9.2,-,N/A,,Clear,110,2013-02-20 00:53:00
7:53 PM,24.1,8.1,51,30.25,10.0,ESE,13.8,-,N/A,,Clear,110,2013-02-20 01:53:00
8:53 PM,21.9,3.9,46,30.24,10.0,ESE,16.1,-,N/A,,Clear,110,2013-02-20 02:53:00
9:53 PM,21.0,3.0,46,30.24,10.0,ESE,17.3,-,N/A,,Clear,110,2013-02-20 03:53:00
10:53 PM,19.0,1.0,46,30.24,10.0,ESE,16.1,-,N/A,,Clear,110,2013-02-20 04:53:00
11:53 PM,18.0,-0.0,45,30.24,10.0,ESE,17.3,-,N/A,,Clear,110,2013-02-20 05:53:00